sensor_id;sensor_type;location;lat;lon;timestamp;P1;durP1;ratioP1;P2;durP2;ratioP2
12908;SDS011;6522;49.622;6.126;2023-05-16T00:02:07;5.25;;;4.75;;
12908;SDS011;6522;49.622;6.126;2023-05-16T00:04:54;6.12;;;4.32;;
12908;SDS011;6522;49.622;6.126;2023-05-16T00:07:42;5.68;;;5.18;;
12908;SDS011;6522;49.622;6.126;2023-05-16T00:10:28;5.50;;;5.00;;
12908;SDS011;6522;49.622;6.126;2023-05-16T00:13:14;5.32;;;4.82;;
12908;SDS011;6522;49.622;6.126;2023-05-16T00:16:01;5.03;;;4.62;;
12908;SDS011;6522;49.622;6.126;2023-05-16T00:18:47;5.55;;;5.05;;
12908;SDS011;6522;49.622;6.126;2023-05-16T00:21:34;4.82;;;4.45;;
12908;SDS011;6522;49.622;6.126;2023-05-16T00:24:21;4.40;;;4.00;;
12908;SDS011;6522;49.622;6.126;2023-05-16T00:27:08;4.35;;;3.95;;
12908;SDS011;6522;49.622;6.126;2023-05-16T00:29:55;4.80;;;4.40;;
12908;SDS011;6522;49.622;6.126;2023-05-16T00:32:42;4.25;;;3.85;;
12908;SDS011;6522;49.622;6.126;2023-05-16T00:35:28;3.92;;;3.62;;
12908;SDS011;6522;49.622;6.126;2023-05-16T00:38:15;4.95;;;3.50;;
12908;SDS011;6522;49.622;6.126;2023-05-16T00:41:01;8.27;;;4.00;;
12908;SDS011;6522;49.622;6.126;2023-05-16T00:43:48;3.85;;;3.55;;
12908;SDS011;6522;49.622;6.126;2023-05-16T00:46:35;4.50;;;4.10;;
12908;SDS011;6522;49.622;6.126;2023-05-16T00:49:22;4.93;;;3.72;;
12908;SDS011;6522;49.622;6.126;2023-05-16T00:52:09;4.82;;;3.60;;
12908;SDS011;6522;49.622;6.126;2023-05-16T00:54:55;3.70;;;3.40;;
12908;SDS011;6522;49.622;6.126;2023-05-16T00:57:42;3.60;;;3.10;;
12908;SDS011;6522;49.622;6.126;2023-05-16T01:00:29;3.70;;;3.40;;
12908;SDS011;6522;49.622;6.126;2023-05-16T01:03:16;5.15;;;3.40;;
12908;SDS011;6522;49.622;6.126;2023-05-16T01:06:02;3.75;;;3.08;;
12908;SDS011;6522;49.622;6.126;2023-05-16T01:08:49;5.07;;;3.40;;
12908;SDS011;6522;49.622;6.126;2023-05-16T01:11:46;3.60;;;3.30;;
12908;SDS011;6522;49.622;6.126;2023-05-16T01:29:03;4.00;;;3.70;;
12908;SDS011;6522;49.622;6.126;2023-05-16T01:31:50;3.75;;;3.35;;
12908;SDS011;6522;49.622;6.126;2023-05-16T01:34:37;4.20;;;3.90;;
12908;SDS011;6522;49.622;6.126;2023-05-16T01:37:28;4.68;;;4.28;;
12908;SDS011;6522;49.622;6.126;2023-05-16T01:40:17;4.03;;;3.72;;
12908;SDS011;6522;49.622;6.126;2023-05-16T01:43:00;6.85;;;4.30;;
12908;SDS011;6522;49.622;6.126;2023-05-16T01:45:49;5.95;;;3.42;;
12908;SDS011;6522;49.622;6.126;2023-05-16T01:48:35;4.37;;;3.90;;
12908;SDS011;6522;49.622;6.126;2023-05-16T01:51:21;6.47;;;3.70;;
12908;SDS011;6522;49.622;6.126;2023-05-16T01:54:10;3.28;;;2.97;;
12908;SDS011;6522;49.622;6.126;2023-05-16T01:56:54;4.30;;;3.90;;
12908;SDS011;6522;49.622;6.126;2023-05-16T01:59:41;4.80;;;4.50;;
12908;SDS011;6522;49.622;6.126;2023-05-16T02:02:27;4.05;;;3.75;;
12908;SDS011;6522;49.622;6.126;2023-05-16T02:05:14;3.50;;;3.20;;
12908;SDS011;6522;49.622;6.126;2023-05-16T02:08:01;4.68;;;4.28;;
12908;SDS011;6522;49.622;6.126;2023-05-16T02:10:47;4.80;;;4.40;;
12908;SDS011;6522;49.622;6.126;2023-05-16T02:13:34;5.05;;;4.10;;
12908;SDS011;6522;49.622;6.126;2023-05-16T02:16:20;5.40;;;4.25;;
12908;SDS011;6522;49.622;6.126;2023-05-16T02:19:07;4.62;;;4.22;;
12908;SDS011;6522;49.622;6.126;2023-05-16T02:21:54;5.22;;;4.32;;
12908;SDS011;6522;49.622;6.126;2023-05-16T02:24:41;6.05;;;4.57;;
12908;SDS011;6522;49.622;6.126;2023-05-16T02:27:28;5.82;;;4.75;;
12908;SDS011;6522;49.622;6.126;2023-05-16T02:30:15;4.65;;;3.90;;
12908;SDS011;6522;49.622;6.126;2023-05-16T02:33:02;6.35;;;4.40;;
12908;SDS011;6522;49.622;6.126;2023-05-16T02:35:48;4.65;;;4.25;;
12908;SDS011;6522;49.622;6.126;2023-05-16T02:38:35;7.32;;;5.22;;
12908;SDS011;6522;49.622;6.126;2023-05-16T02:41:22;5.12;;;4.72;;
12908;SDS011;6522;49.622;6.126;2023-05-16T02:44:09;5.35;;;4.43;;
12908;SDS011;6522;49.622;6.126;2023-05-16T02:46:55;7.82;;;5.32;;
12908;SDS011;6522;49.622;6.126;2023-05-16T02:49:42;5.85;;;4.90;;
12908;SDS011;6522;49.622;6.126;2023-05-16T02:52:29;5.80;;;5.30;;
12908;SDS011;6522;49.622;6.126;2023-05-16T02:55:16;8.23;;;6.10;;
12908;SDS011;6522;49.622;6.126;2023-05-16T02:58:03;5.45;;;5.03;;
12908;SDS011;6522;49.622;6.126;2023-05-16T03:00:49;5.72;;;5.05;;
12908;SDS011;6522;49.622;6.126;2023-05-16T03:03:36;6.82;;;5.20;;
12908;SDS011;6522;49.622;6.126;2023-05-16T03:06:22;6.75;;;6.00;;
12908;SDS011;6522;49.622;6.126;2023-05-16T03:09:09;5.28;;;4.75;;
12908;SDS011;6522;49.622;6.126;2023-05-16T03:11:56;5.62;;;5.00;;
12908;SDS011;6522;49.622;6.126;2023-05-16T03:18:07;6.85;;;6.22;;
12908;SDS011;6522;49.622;6.126;2023-05-16T03:20:54;7.45;;;5.78;;
12908;SDS011;6522;49.622;6.126;2023-05-16T03:23:40;6.30;;;5.80;;
12908;SDS011;6522;49.622;6.126;2023-05-16T03:26:27;7.20;;;6.50;;
12908;SDS011;6522;49.622;6.126;2023-05-16T03:29:14;9.23;;;6.55;;
12908;SDS011;6522;49.622;6.126;2023-05-16T03:32:01;4.87;;;4.47;;
12908;SDS011;6522;49.622;6.126;2023-05-16T03:34:48;5.87;;;5.30;;
12908;SDS011;6522;49.622;6.126;2023-05-16T03:37:34;5.62;;;5.12;;
12908;SDS011;6522;49.622;6.126;2023-05-16T03:40:22;5.65;;;5.07;;
12908;SDS011;6522;49.622;6.126;2023-05-16T03:43:08;6.65;;;5.85;;
12908;SDS011;6522;49.622;6.126;2023-05-16T03:45:55;6.60;;;6.00;;
12908;SDS011;6522;49.622;6.126;2023-05-16T03:48:42;6.70;;;6.10;;
12908;SDS011;6522;49.622;6.126;2023-05-16T03:51:28;5.18;;;4.78;;
12908;SDS011;6522;49.622;6.126;2023-05-16T03:54:15;6.30;;;5.70;;
12908;SDS011;6522;49.622;6.126;2023-05-16T03:57:02;4.93;;;4.50;;
12908;SDS011;6522;49.622;6.126;2023-05-16T03:59:49;5.80;;;4.85;;
12908;SDS011;6522;49.622;6.126;2023-05-16T04:02:35;7.87;;;4.93;;
12908;SDS011;6522;49.622;6.126;2023-05-16T04:05:22;11.77;;;5.32;;
12908;SDS011;6522;49.622;6.126;2023-05-16T04:08:09;6.37;;;5.12;;
12908;SDS011;6522;49.622;6.126;2023-05-16T04:10:55;6.05;;;5.40;;
12908;SDS011;6522;49.622;6.126;2023-05-16T04:13:42;5.82;;;5.32;;
12908;SDS011;6522;49.622;6.126;2023-05-16T04:16:29;6.43;;;5.78;;
12908;SDS011;6522;49.622;6.126;2023-05-16T04:19:15;9.80;;;5.47;;
12908;SDS011;6522;49.622;6.126;2023-05-16T04:22:02;7.50;;;4.70;;
12908;SDS011;6522;49.622;6.126;2023-05-16T04:24:49;5.25;;;4.75;;
12908;SDS011;6522;49.622;6.126;2023-05-16T04:27:36;6.75;;;4.50;;
12908;SDS011;6522;49.622;6.126;2023-05-16T04:30:22;8.88;;;5.45;;
12908;SDS011;6522;49.622;6.126;2023-05-16T04:33:09;10.35;;;5.68;;
12908;SDS011;6522;49.622;6.126;2023-05-16T04:35:56;12.55;;;6.22;;
12908;SDS011;6522;49.622;6.126;2023-05-16T04:38:43;5.78;;;5.28;;
12908;SDS011;6522;49.622;6.126;2023-05-16T04:41:30;6.93;;;5.30;;
12908;SDS011;6522;49.622;6.126;2023-05-16T04:44:16;9.35;;;4.70;;
12908;SDS011;6522;49.622;6.126;2023-05-16T04:47:03;6.20;;;5.55;;
12908;SDS011;6522;49.622;6.126;2023-05-16T04:49:50;5.20;;;4.80;;
12908;SDS011;6522;49.622;6.126;2023-05-16T04:52:36;10.68;;;4.60;;
12908;SDS011;6522;49.622;6.126;2023-05-16T04:55:23;5.93;;;4.87;;
12908;SDS011;6522;49.622;6.126;2023-05-16T04:58:10;8.33;;;5.30;;
12908;SDS011;6522;49.622;6.126;2023-05-16T05:00:56;7.25;;;5.70;;
12908;SDS011;6522;49.622;6.126;2023-05-16T05:03:43;5.12;;;4.70;;
12908;SDS011;6522;49.622;6.126;2023-05-16T05:06:30;6.85;;;5.43;;
12908;SDS011;6522;49.622;6.126;2023-05-16T05:09:17;8.18;;;5.40;;
12908;SDS011;6522;49.622;6.126;2023-05-16T05:12:03;5.95;;;4.93;;
12908;SDS011;6522;49.622;6.126;2023-05-16T05:14:50;6.97;;;4.40;;
12908;SDS011;6522;49.622;6.126;2023-05-16T05:17:37;7.50;;;4.85;;
12908;SDS011;6522;49.622;6.126;2023-05-16T05:20:23;8.27;;;4.70;;
12908;SDS011;6522;49.622;6.126;2023-05-16T05:23:10;6.05;;;4.12;;
12908;SDS011;6522;49.622;6.126;2023-05-16T05:25:57;5.40;;;4.93;;
12908;SDS011;6522;49.622;6.126;2023-05-16T05:28:44;4.40;;;4.00;;
12908;SDS011;6522;49.622;6.126;2023-05-16T05:31:30;5.90;;;4.60;;
12908;SDS011;6522;49.622;6.126;2023-05-16T05:34:17;9.10;;;5.10;;
12908;SDS011;6522;49.622;6.126;2023-05-16T05:37:04;5.15;;;4.75;;
12908;SDS011;6522;49.622;6.126;2023-05-16T05:39:51;9.88;;;4.95;;
12908;SDS011;6522;49.622;6.126;2023-05-16T05:42:37;6.70;;;4.87;;
12908;SDS011;6522;49.622;6.126;2023-05-16T05:45:24;5.45;;;4.50;;
12908;SDS011;6522;49.622;6.126;2023-05-16T05:48:11;8.63;;;3.80;;
12908;SDS011;6522;49.622;6.126;2023-05-16T05:50:57;5.15;;;4.75;;
12908;SDS011;6522;49.622;6.126;2023-05-16T05:53:44;4.40;;;4.00;;
12908;SDS011;6522;49.622;6.126;2023-05-16T05:56:31;6.65;;;4.80;;
12908;SDS011;6522;49.622;6.126;2023-05-16T05:59:18;7.47;;;4.37;;
12908;SDS011;6522;49.622;6.126;2023-05-16T06:02:05;6.55;;;5.32;;
12908;SDS011;6522;49.622;6.126;2023-05-16T06:04:51;5.60;;;5.12;;
12908;SDS011;6522;49.622;6.126;2023-05-16T06:07:38;6.30;;;5.35;;
12908;SDS011;6522;49.622;6.126;2023-05-16T06:10:25;6.95;;;4.65;;
12908;SDS011;6522;49.622;6.126;2023-05-16T06:13:12;5.70;;;5.15;;
12908;SDS011;6522;49.622;6.126;2023-05-16T06:15:59;8.30;;;5.05;;
12908;SDS011;6522;49.622;6.126;2023-05-16T06:18:45;7.07;;;5.75;;
12908;SDS011;6522;49.622;6.126;2023-05-16T06:21:32;7.72;;;5.30;;
12908;SDS011;6522;49.622;6.126;2023-05-16T06:24:20;6.82;;;5.40;;
12908;SDS011;6522;49.622;6.126;2023-05-16T06:27:07;6.10;;;5.60;;
12908;SDS011;6522;49.622;6.126;2023-05-16T06:29:53;5.80;;;5.30;;
12908;SDS011;6522;49.622;6.126;2023-05-16T06:32:40;5.85;;;5.30;;
12908;SDS011;6522;49.622;6.126;2023-05-16T06:35:27;6.68;;;5.53;;
12908;SDS011;6522;49.622;6.126;2023-05-16T06:38:14;6.90;;;6.20;;
12908;SDS011;6522;49.622;6.126;2023-05-16T06:41:00;6.72;;;6.10;;
12908;SDS011;6522;49.622;6.126;2023-05-16T06:43:47;6.45;;;6.05;;
12908;SDS011;6522;49.622;6.126;2023-05-16T06:46:33;7.03;;;5.50;;
12908;SDS011;6522;49.622;6.126;2023-05-16T06:49:20;10.43;;;6.50;;
12908;SDS011;6522;49.622;6.126;2023-05-16T06:52:07;6.90;;;6.12;;
12908;SDS011;6522;49.622;6.126;2023-05-16T06:54:54;8.88;;;6.68;;
12908;SDS011;6522;49.622;6.126;2023-05-16T06:57:41;10.82;;;6.57;;
12908;SDS011;6522;49.622;6.126;2023-05-16T07:00:28;7.62;;;6.82;;
12908;SDS011;6522;49.622;6.126;2023-05-16T07:03:14;9.10;;;8.18;;
12908;SDS011;6522;49.622;6.126;2023-05-16T07:06:01;8.95;;;7.70;;
12908;SDS011;6522;49.622;6.126;2023-05-16T07:08:48;9.85;;;9.05;;
12908;SDS011;6522;49.622;6.126;2023-05-16T07:11:35;10.27;;;9.43;;
12908;SDS011;6522;49.622;6.126;2023-05-16T07:14:22;9.85;;;9.15;;
12908;SDS011;6522;49.622;6.126;2023-05-16T07:17:09;10.93;;;10.20;;
12908;SDS011;6522;49.622;6.126;2023-05-16T07:19:56;10.73;;;10.02;;
12908;SDS011;6522;49.622;6.126;2023-05-16T07:22:43;10.02;;;9.23;;
12908;SDS011;6522;49.622;6.126;2023-05-16T07:25:29;10.77;;;10.07;;
12908;SDS011;6522;49.622;6.126;2023-05-16T07:28:16;11.50;;;10.48;;
12908;SDS011;6522;49.622;6.126;2023-05-16T07:31:03;10.25;;;9.45;;
12908;SDS011;6522;49.622;6.126;2023-05-16T07:33:50;10.10;;;9.20;;
12908;SDS011;6522;49.622;6.126;2023-05-16T07:36:37;12.50;;;11.57;;
12908;SDS011;6522;49.622;6.126;2023-05-16T07:39:23;11.43;;;10.82;;
12908;SDS011;6522;49.622;6.126;2023-05-16T07:42:10;9.70;;;9.00;;
12908;SDS011;6522;49.622;6.126;2023-05-16T07:44:57;11.70;;;10.90;;
12908;SDS011;6522;49.622;6.126;2023-05-16T07:47:44;15.15;;;14.27;;
12908;SDS011;6522;49.622;6.126;2023-05-16T07:50:31;12.70;;;11.60;;
12908;SDS011;6522;49.622;6.126;2023-05-16T07:53:17;15.20;;;14.15;;
12908;SDS011;6522;49.622;6.126;2023-05-16T07:56:04;14.35;;;13.50;;
12908;SDS011;6522;49.622;6.126;2023-05-16T07:58:51;14.40;;;13.30;;
12908;SDS011;6522;49.622;6.126;2023-05-16T08:01:38;16.23;;;15.13;;
12908;SDS011;6522;49.622;6.126;2023-05-16T08:04:25;16.87;;;15.90;;
12908;SDS011;6522;49.622;6.126;2023-05-16T08:07:12;17.30;;;16.30;;
12908;SDS011;6522;49.622;6.126;2023-05-16T08:09:58;17.25;;;16.45;;
12908;SDS011;6522;49.622;6.126;2023-05-16T08:12:46;16.87;;;15.93;;
12908;SDS011;6522;49.622;6.126;2023-05-16T08:15:32;18.10;;;16.70;;
12908;SDS011;6522;49.622;6.126;2023-05-16T08:18:19;18.05;;;17.15;;
12908;SDS011;6522;49.622;6.126;2023-05-16T08:21:06;18.42;;;17.35;;
12908;SDS011;6522;49.622;6.126;2023-05-16T08:23:53;16.95;;;16.15;;
12908;SDS011;6522;49.622;6.126;2023-05-16T08:26:40;18.40;;;17.10;;
12908;SDS011;6522;49.622;6.126;2023-05-16T08:29:26;17.92;;;17.05;;
12908;SDS011;6522;49.622;6.126;2023-05-16T08:32:13;21.55;;;16.77;;
12908;SDS011;6522;49.622;6.126;2023-05-16T08:35:00;17.85;;;16.65;;
12908;SDS011;6522;49.622;6.126;2023-05-16T08:37:47;18.33;;;17.23;;
12908;SDS011;6522;49.622;6.126;2023-05-16T08:40:34;17.98;;;16.92;;
12908;SDS011;6522;49.622;6.126;2023-05-16T08:43:21;15.40;;;14.40;;
12908;SDS011;6522;49.622;6.126;2023-05-16T08:46:08;18.05;;;17.05;;
12908;SDS011;6522;49.622;6.126;2023-05-16T08:48:57;20.52;;;19.17;;
12908;SDS011;6522;49.622;6.126;2023-05-16T08:51:41;17.33;;;16.40;;
12908;SDS011;6522;49.622;6.126;2023-05-16T08:54:28;18.20;;;17.20;;
12908;SDS011;6522;49.622;6.126;2023-05-16T08:57:15;20.90;;;19.58;;
12908;SDS011;6522;49.622;6.126;2023-05-16T09:00:05;21.00;;;19.90;;
12908;SDS011;6522;49.622;6.126;2023-05-16T09:02:51;19.00;;;17.90;;
12908;SDS011;6522;49.622;6.126;2023-05-16T09:05:37;18.67;;;17.58;;
12908;SDS011;6522;49.622;6.126;2023-05-16T09:08:24;19.60;;;18.20;;
12908;SDS011;6522;49.622;6.126;2023-05-16T09:11:11;21.17;;;20.17;;
12908;SDS011;6522;49.622;6.126;2023-05-16T09:13:58;19.23;;;18.05;;
12908;SDS011;6522;49.622;6.126;2023-05-16T09:16:45;19.73;;;18.70;;
12908;SDS011;6522;49.622;6.126;2023-05-16T09:19:39;19.60;;;18.50;;
12908;SDS011;6522;49.622;6.126;2023-05-16T09:22:25;19.20;;;18.20;;
12908;SDS011;6522;49.622;6.126;2023-05-16T09:25:15;22.00;;;20.73;;
12908;SDS011;6522;49.622;6.126;2023-05-16T09:27:59;21.43;;;20.33;;
12908;SDS011;6522;49.622;6.126;2023-05-16T09:30:45;21.10;;;19.90;;
12908;SDS011;6522;49.622;6.126;2023-05-16T09:33:32;21.93;;;20.67;;
12908;SDS011;6522;49.622;6.126;2023-05-16T09:36:19;20.50;;;19.50;;
12908;SDS011;6522;49.622;6.126;2023-05-16T09:39:06;21.87;;;20.30;;
12908;SDS011;6522;49.622;6.126;2023-05-16T09:41:53;20.60;;;19.57;;
12908;SDS011;6522;49.622;6.126;2023-05-16T09:44:40;20.80;;;19.70;;
12908;SDS011;6522;49.622;6.126;2023-05-16T09:47:26;21.50;;;20.20;;
12908;SDS011;6522;49.622;6.126;2023-05-16T09:50:13;20.53;;;19.30;;
12908;SDS011;6522;49.622;6.126;2023-05-16T09:53:00;20.20;;;19.13;;
12908;SDS011;6522;49.622;6.126;2023-05-16T09:55:47;19.08;;;17.87;;
12908;SDS011;6522;49.622;6.126;2023-05-16T09:58:34;20.27;;;19.27;;
12908;SDS011;6522;49.622;6.126;2023-05-16T10:01:20;20.07;;;19.07;;
12908;SDS011;6522;49.622;6.126;2023-05-16T10:04:07;20.60;;;19.50;;
12908;SDS011;6522;49.622;6.126;2023-05-16T10:06:54;20.20;;;19.20;;
12908;SDS011;6522;49.622;6.126;2023-05-16T10:09:41;20.83;;;19.83;;
12908;SDS011;6522;49.622;6.126;2023-05-16T10:12:28;21.27;;;19.97;;
12908;SDS011;6522;49.622;6.126;2023-05-16T10:15:14;20.80;;;19.77;;
12908;SDS011;6522;49.622;6.126;2023-05-16T10:18:01;20.77;;;19.67;;
12908;SDS011;6522;49.622;6.126;2023-05-16T10:20:50;20.60;;;19.60;;
12908;SDS011;6522;49.622;6.126;2023-05-16T10:23:35;20.33;;;19.23;;
12908;SDS011;6522;49.622;6.126;2023-05-16T10:26:21;20.30;;;19.20;;
12908;SDS011;6522;49.622;6.126;2023-05-16T10:29:08;20.30;;;19.30;;
12908;SDS011;6522;49.622;6.126;2023-05-16T10:31:55;21.20;;;19.80;;
12908;SDS011;6522;49.622;6.126;2023-05-16T10:34:42;20.40;;;19.13;;
12908;SDS011;6522;49.622;6.126;2023-05-16T10:37:29;21.70;;;20.10;;
12908;SDS011;6522;49.622;6.126;2023-05-16T10:40:15;20.27;;;19.17;;
12908;SDS011;6522;49.622;6.126;2023-05-16T10:43:03;20.00;;;19.10;;
12908;SDS011;6522;49.622;6.126;2023-05-16T10:45:55;19.73;;;18.83;;
12908;SDS011;6522;49.622;6.126;2023-05-16T10:48:42;20.33;;;18.93;;
12908;SDS011;6522;49.622;6.126;2023-05-16T10:51:32;18.10;;;17.00;;
12908;SDS011;6522;49.622;6.126;2023-05-16T10:54:18;17.30;;;16.30;;
12908;SDS011;6522;49.622;6.126;2023-05-16T10:57:05;19.50;;;18.30;;
12908;SDS011;6522;49.622;6.126;2023-05-16T10:59:51;19.53;;;18.63;;
12908;SDS011;6522;49.622;6.126;2023-05-16T11:02:41;20.37;;;19.20;;
12908;SDS011;6522;49.622;6.126;2023-05-16T11:05:25;19.90;;;18.93;;
12908;SDS011;6522;49.622;6.126;2023-05-16T11:08:12;20.10;;;19.10;;
12908;SDS011;6522;49.622;6.126;2023-05-16T11:14:04;20.00;;;19.10;;
12908;SDS011;6522;49.622;6.126;2023-05-16T11:16:58;19.83;;;18.83;;
12908;SDS011;6522;49.622;6.126;2023-05-16T11:22:27;20.63;;;19.63;;
12908;SDS011;6522;49.622;6.126;2023-05-16T11:25:14;20.33;;;19.20;;
12908;SDS011;6522;49.622;6.126;2023-05-16T11:28:01;20.30;;;19.40;;
12908;SDS011;6522;49.622;6.126;2023-05-16T11:30:48;19.90;;;18.80;;
12908;SDS011;6522;49.622;6.126;2023-05-16T11:33:34;20.23;;;19.23;;
12908;SDS011;6522;49.622;6.126;2023-05-16T11:36:21;19.90;;;18.90;;
12908;SDS011;6522;49.622;6.126;2023-05-16T11:39:08;20.07;;;18.57;;
12908;SDS011;6522;49.622;6.126;2023-05-16T11:41:55;19.57;;;18.67;;
12908;SDS011;6522;49.622;6.126;2023-05-16T11:44:42;20.00;;;18.90;;
12908;SDS011;6522;49.622;6.126;2023-05-16T11:47:29;19.17;;;18.13;;
12908;SDS011;6522;49.622;6.126;2023-05-16T11:50:16;20.27;;;19.13;;
12908;SDS011;6522;49.622;6.126;2023-05-16T11:53:02;19.77;;;18.77;;
12908;SDS011;6522;49.622;6.126;2023-05-16T11:55:49;18.80;;;17.80;;
12908;SDS011;6522;49.622;6.126;2023-05-16T11:58:36;18.70;;;17.60;;
12908;SDS011;6522;49.622;6.126;2023-05-16T12:01:23;21.10;;;20.20;;
12908;SDS011;6522;49.622;6.126;2023-05-16T12:04:10;20.70;;;19.70;;
12908;SDS011;6522;49.622;6.126;2023-05-16T12:06:57;20.67;;;19.50;;
12908;SDS011;6522;49.622;6.126;2023-05-16T12:09:50;21.03;;;20.03;;
12908;SDS011;6522;49.622;6.126;2023-05-16T12:12:30;18.40;;;17.30;;
12908;SDS011;6522;49.622;6.126;2023-05-16T12:15:17;20.87;;;19.77;;
12908;SDS011;6522;49.622;6.126;2023-05-16T12:18:03;20.30;;;19.23;;
12908;SDS011;6522;49.622;6.126;2023-05-16T12:20:50;20.90;;;19.70;;
12908;SDS011;6522;49.622;6.126;2023-05-16T12:23:37;20.77;;;19.50;;
12908;SDS011;6522;49.622;6.126;2023-05-16T12:26:24;20.80;;;19.70;;
12908;SDS011;6522;49.622;6.126;2023-05-16T12:29:10;21.50;;;20.20;;
12908;SDS011;6522;49.622;6.126;2023-05-16T12:31:57;20.27;;;19.30;;
12908;SDS011;6522;49.622;6.126;2023-05-16T12:34:50;21.20;;;20.20;;
12908;SDS011;6522;49.622;6.126;2023-05-16T12:37:36;21.27;;;20.07;;
12908;SDS011;6522;49.622;6.126;2023-05-16T12:40:27;18.40;;;17.40;;
12908;SDS011;6522;49.622;6.126;2023-05-16T12:43:20;21.87;;;20.87;;
12908;SDS011;6522;49.622;6.126;2023-05-16T12:46:08;18.37;;;17.58;;
12908;SDS011;6522;49.622;6.126;2023-05-16T12:49:00;19.15;;;18.02;;
12908;SDS011;6522;49.622;6.126;2023-05-16T12:51:46;21.80;;;20.70;;
12908;SDS011;6522;49.622;6.126;2023-05-16T12:54:27;18.80;;;17.80;;
12908;SDS011;6522;49.622;6.126;2023-05-16T12:57:14;22.43;;;21.17;;
12908;SDS011;6522;49.622;6.126;2023-05-16T13:00:01;20.10;;;18.70;;
12908;SDS011;6522;49.622;6.126;2023-05-16T13:02:48;19.40;;;18.30;;
12908;SDS011;6522;49.622;6.126;2023-05-16T13:05:34;22.00;;;21.00;;
12908;SDS011;6522;49.622;6.126;2023-05-16T13:08:21;19.25;;;18.15;;
12908;SDS011;6522;49.622;6.126;2023-05-16T13:11:08;19.08;;;17.92;;
12908;SDS011;6522;49.622;6.126;2023-05-16T13:13:54;23.03;;;21.83;;
12908;SDS011;6522;49.622;6.126;2023-05-16T13:16:41;19.27;;;18.17;;
12908;SDS011;6522;49.622;6.126;2023-05-16T13:19:28;19.58;;;18.40;;
12908;SDS011;6522;49.622;6.126;2023-05-16T13:22:14;22.77;;;21.67;;
12908;SDS011;6522;49.622;6.126;2023-05-16T13:25:02;20.48;;;19.37;;
12908;SDS011;6522;49.622;6.126;2023-05-16T13:27:48;20.20;;;19.00;;
12908;SDS011;6522;49.622;6.126;2023-05-16T13:30:35;24.03;;;22.73;;
12908;SDS011;6522;49.622;6.126;2023-05-16T13:33:21;19.90;;;18.60;;
12908;SDS011;6522;49.622;6.126;2023-05-16T13:36:08;20.05;;;18.80;;
12908;SDS011;6522;49.622;6.126;2023-05-16T13:38:55;22.53;;;21.37;;
12908;SDS011;6522;49.622;6.126;2023-05-16T13:41:41;19.90;;;18.80;;
12908;SDS011;6522;49.622;6.126;2023-05-16T13:44:28;19.20;;;18.20;;
12908;SDS011;6522;49.622;6.126;2023-05-16T13:47:15;21.67;;;20.60;;
12908;SDS011;6522;49.622;6.126;2023-05-16T13:50:02;18.92;;;17.90;;
12908;SDS011;6522;49.622;6.126;2023-05-16T13:52:48;17.90;;;17.00;;
12908;SDS011;6522;49.622;6.126;2023-05-16T13:56:11;17.40;;;16.60;;
12908;SDS011;6522;49.622;6.126;2023-05-16T13:58:59;20.47;;;19.37;;
12908;SDS011;6522;49.622;6.126;2023-05-16T14:01:45;18.00;;;17.00;;
12908;SDS011;6522;49.622;6.126;2023-05-16T14:04:32;18.40;;;17.45;;
12908;SDS011;6522;49.622;6.126;2023-05-16T14:07:18;18.80;;;17.70;;
12908;SDS011;6522;49.622;6.126;2023-05-16T14:10:05;20.60;;;19.47;;
12908;SDS011;6522;49.622;6.126;2023-05-16T14:12:52;17.80;;;16.80;;
12908;SDS011;6522;49.622;6.126;2023-05-16T14:15:39;18.60;;;17.50;;
12908;SDS011;6522;49.622;6.126;2023-05-16T14:18:26;21.77;;;20.47;;
12908;SDS011;6522;49.622;6.126;2023-05-16T14:21:13;18.30;;;17.40;;
12908;SDS011;6522;49.622;6.126;2023-05-16T14:24:00;18.00;;;17.00;;
12908;SDS011;6522;49.622;6.126;2023-05-16T14:26:47;20.83;;;19.53;;
12908;SDS011;6522;49.622;6.126;2023-05-16T14:29:33;18.25;;;17.25;;
12908;SDS011;6522;49.622;6.126;2023-05-16T14:32:20;17.85;;;16.95;;
12908;SDS011;6522;49.622;6.126;2023-05-16T14:35:07;20.00;;;19.10;;
12908;SDS011;6522;49.622;6.126;2023-05-16T14:37:54;18.10;;;17.20;;
12908;SDS011;6522;49.622;6.126;2023-05-16T14:40:41;18.10;;;16.90;;
12908;SDS011;6522;49.622;6.126;2023-05-16T14:43:27;17.30;;;16.33;;
12908;SDS011;6522;49.622;6.126;2023-05-16T14:46:14;19.90;;;19.00;;
12908;SDS011;6522;49.622;6.126;2023-05-16T14:49:01;17.27;;;16.33;;
12908;SDS011;6522;49.622;6.126;2023-05-16T14:51:48;16.90;;;16.00;;
12908;SDS011;6522;49.622;6.126;2023-05-16T14:54:34;17.40;;;16.40;;
12908;SDS011;6522;49.622;6.126;2023-05-16T14:57:21;19.50;;;18.70;;
12908;SDS011;6522;49.622;6.126;2023-05-16T15:00:09;16.95;;;16.10;;
12908;SDS011;6522;49.622;6.126;2023-05-16T15:02:55;17.50;;;16.42;;
12908;SDS011;6522;49.622;6.126;2023-05-16T15:05:42;18.73;;;17.93;;
12908;SDS011;6522;49.622;6.126;2023-05-16T15:08:29;17.20;;;16.30;;
12908;SDS011;6522;49.622;6.126;2023-05-16T15:11:16;17.20;;;16.20;;
12908;SDS011;6522;49.622;6.126;2023-05-16T15:14:03;19.40;;;18.40;;
12908;SDS011;6522;49.622;6.126;2023-05-16T15:16:50;17.33;;;16.42;;
12908;SDS011;6522;49.622;6.126;2023-05-16T15:19:37;17.67;;;16.58;;
12908;SDS011;6522;49.622;6.126;2023-05-16T15:22:23;17.27;;;16.27;;
12908;SDS011;6522;49.622;6.126;2023-05-16T15:25:10;18.08;;;17.00;;
12908;SDS011;6522;49.622;6.126;2023-05-16T15:27:56;20.60;;;19.50;;
12908;SDS011;6522;49.622;6.126;2023-05-16T15:30:43;17.70;;;16.55;;
12908;SDS011;6522;49.622;6.126;2023-05-16T15:33:30;17.00;;;16.10;;
12908;SDS011;6522;49.622;6.126;2023-05-16T15:36:17;20.53;;;19.13;;
12908;SDS011;6522;49.622;6.126;2023-05-16T15:39:04;17.48;;;16.30;;
12908;SDS011;6522;49.622;6.126;2023-05-16T15:41:51;16.85;;;16.05;;
12908;SDS011;6522;49.622;6.126;2023-05-16T15:44:37;20.10;;;18.80;;
12908;SDS011;6522;49.622;6.126;2023-05-16T15:47:24;17.73;;;16.75;;
12908;SDS011;6522;49.622;6.126;2023-05-16T15:50:11;17.90;;;16.80;;
12908;SDS011;6522;49.622;6.126;2023-05-16T15:52:58;20.77;;;19.77;;
12908;SDS011;6522;49.622;6.126;2023-05-16T15:55:44;17.53;;;16.50;;
12908;SDS011;6522;49.622;6.126;2023-05-16T15:58:31;17.30;;;16.40;;
12908;SDS011;6522;49.622;6.126;2023-05-16T16:01:18;17.55;;;16.55;;
12908;SDS011;6522;49.622;6.126;2023-05-16T16:04:05;17.55;;;16.55;;
12908;SDS011;6522;49.622;6.126;2023-05-16T16:06:51;18.90;;;18.10;;
12908;SDS011;6522;49.622;6.126;2023-05-16T16:09:38;17.35;;;16.33;;
12908;SDS011;6522;49.622;6.126;2023-05-16T16:12:27;20.87;;;19.47;;
12908;SDS011;6522;49.622;6.126;2023-05-16T16:15:11;17.17;;;16.17;;
12908;SDS011;6522;49.622;6.126;2023-05-16T16:17:58;20.17;;;18.92;;
12908;SDS011;6522;49.622;6.126;2023-05-16T16:20:45;19.25;;;18.35;;
12908;SDS011;6522;49.622;6.126;2023-05-16T16:23:32;19.40;;;18.40;;
12908;SDS011;6522;49.622;6.126;2023-05-16T16:26:19;20.10;;;19.10;;
12908;SDS011;6522;49.622;6.126;2023-05-16T16:29:05;18.87;;;17.87;;
12908;SDS011;6522;49.622;6.126;2023-05-16T16:31:52;18.85;;;17.95;;
12908;SDS011;6522;49.622;6.126;2023-05-16T16:34:39;16.77;;;15.88;;
12908;SDS011;6522;49.622;6.126;2023-05-16T16:37:26;18.87;;;17.98;;
12908;SDS011;6522;49.622;6.126;2023-05-16T16:40:13;19.08;;;18.17;;
12908;SDS011;6522;49.622;6.126;2023-05-16T16:43:00;18.65;;;17.75;;
12908;SDS011;6522;49.622;6.126;2023-05-16T16:45:46;19.05;;;18.15;;
12908;SDS011;6522;49.622;6.126;2023-05-16T16:48:34;17.20;;;16.00;;
12908;SDS011;6522;49.622;6.126;2023-05-16T16:51:20;18.40;;;17.30;;
12908;SDS011;6522;49.622;6.126;2023-05-16T16:54:07;18.62;;;17.50;;
12908;SDS011;6522;49.622;6.126;2023-05-16T16:56:54;19.27;;;18.23;;
12908;SDS011;6522;49.622;6.126;2023-05-16T16:59:41;19.30;;;18.30;;
12908;SDS011;6522;49.622;6.126;2023-05-16T17:02:28;17.02;;;16.12;;
12908;SDS011;6522;49.622;6.126;2023-05-16T17:05:15;17.40;;;16.40;;
12908;SDS011;6522;49.622;6.126;2023-05-16T17:08:01;19.67;;;18.55;;